createdAt,value
2022-08-18T00:01:58.842Z,35.67
2022-08-18T00:04:35.488Z,32.23
2022-08-18T00:07:03.288Z,32.37
2022-08-18T00:09:32.686Z,34.00
2022-08-18T00:12:04.112Z,32.70
2022-08-18T00:14:31.085Z,34.50
2022-08-18T00:16:57.911Z,35.33
2022-08-18T00:19:46.964Z,34.40
2022-08-18T00:22:15.878Z,45.30
2022-08-18T00:24:47.530Z,43.23
2022-08-18T00:27:21.636Z,41.80
2022-08-18T00:29:49.393Z,40.80
2022-08-18T00:32:19.350Z,44.80
2022-08-18T00:34:46.046Z,41.07
2022-08-18T00:37:12.728Z,43.87
2022-08-18T00:39:45.976Z,41.93
2022-08-18T00:42:29.072Z,44.97
2022-08-18T00:45:01.862Z,41.50
2022-08-18T00:47:33.123Z,43.03
2022-08-18T00:50:15.756Z,37.20
2022-08-18T00:52:47.750Z,34.80
2022-08-18T00:55:15.287Z,35.70
2022-08-18T00:57:43.109Z,34.93
2022-08-18T01:00:12.911Z,34.33
2022-08-18T01:02:47.695Z,35.70
2022-08-18T01:05:33.806Z,37.17
2022-08-18T01:08:01.035Z,36.87
2022-08-18T01:10:27.769Z,39.00
2022-08-18T01:12:56.800Z,38.20
2022-08-18T01:15:28.874Z,36.40
2022-08-18T01:18:17.640Z,37.27
2022-08-18T01:21:28.608Z,34.60
2022-08-18T01:23:57.185Z,37.00
2022-08-18T01:26:26.664Z,37.33
2022-08-18T01:28:53.988Z,40.20
2022-08-18T01:31:39.198Z,42.20
2022-08-18T01:34:07.698Z,44.10
2022-08-18T01:36:37.452Z,44.63
2022-08-18T01:39:07.099Z,54.13
2022-08-18T01:41:33.934Z,45.70
2022-08-18T01:44:02.071Z,42.70
2022-08-18T01:46:31.674Z,46.50
2022-08-18T01:49:00.593Z,44.77
2022-08-18T01:51:40.180Z,49.40
2022-08-18T01:54:10.234Z,48.37
2022-08-18T01:56:37.025Z,50.30
2022-08-18T01:59:04.744Z,44.20
2022-08-18T02:01:34.823Z,42.73
2022-08-18T02:04:33.150Z,43.87
2022-08-18T02:06:54.311Z,43.10
2022-08-18T02:09:23.732Z,42.53
2022-08-18T02:11:52.984Z,42.83
2022-08-18T02:14:25.039Z,41.73
2022-08-18T02:17:01.334Z,40.67
2022-08-18T02:19:38.207Z,43.30
2022-08-18T02:22:06.319Z,41.07
2022-08-18T02:24:33.003Z,41.80
2022-08-18T02:27:00.077Z,42.70
2022-08-18T02:29:26.935Z,42.87
2022-08-18T02:31:53.662Z,42.00
2022-08-18T02:34:20.419Z,41.17
2022-08-18T02:36:47.138Z,38.67
2022-08-18T02:39:13.798Z,42.37
2022-08-18T02:41:40.482Z,42.40
2022-08-18T02:44:09.029Z,42.87
2022-08-18T02:46:37.088Z,42.30
2022-08-18T02:49:05.461Z,41.47
2022-08-18T02:51:32.119Z,41.77
2022-08-18T02:54:01.727Z,41.10
2022-08-18T02:56:41.639Z,39.97
2022-08-18T02:59:19.754Z,40.73
2022-08-18T03:01:51.364Z,40.93
2022-08-18T03:04:28.108Z,40.70
2022-08-18T03:06:58.311Z,37.33
2022-08-18T03:09:24.980Z,39.60
2022-08-18T03:11:52.756Z,39.50
2022-08-18T03:14:19.534Z,40.60
2022-08-18T03:16:53.883Z,39.43
2022-08-18T03:19:23.875Z,38.50
2022-08-18T03:21:50.821Z,37.83
2022-08-18T03:24:22.320Z,36.07
2022-08-18T03:26:51.110Z,39.00
2022-08-18T03:29:17.901Z,39.33
2022-08-18T03:31:45.378Z,37.00
2022-08-18T03:34:12.935Z,38.10
2022-08-18T03:36:39.764Z,38.87
2022-08-18T03:39:09.301Z,41.43
2022-08-18T03:41:57.208Z,53.00
2022-08-18T03:44:27.969Z,64.73
2022-08-18T03:46:54.750Z,52.23
2022-08-18T03:49:21.465Z,51.47
2022-08-18T03:51:48.933Z,57.57
2022-08-18T03:54:17.950Z,60.97
2022-08-18T03:56:47.499Z,65.93
2022-08-18T03:59:17.948Z,60.50
2022-08-18T04:01:45.745Z,67.57
2022-08-18T04:04:15.695Z,71.10
2022-08-18T04:06:50.766Z,71.13
2022-08-18T04:09:19.034Z,78.40
2022-08-18T04:11:46.576Z,78.00
2022-08-18T04:14:15.286Z,82.27
2022-08-18T04:16:42.549Z,84.80
2022-08-18T04:19:13.305Z,82.40
2022-08-18T04:21:42.145Z,83.43
2022-08-18T04:24:10.733Z,79.07
2022-08-18T04:26:44.992Z,85.03
2022-08-18T04:29:13.604Z,83.13
2022-08-18T04:31:40.837Z,85.77
2022-08-18T04:34:07.529Z,84.10
2022-08-18T04:36:36.060Z,87.90
2022-08-18T04:39:05.394Z,88.27
2022-08-18T04:41:32.083Z,90.40
2022-08-18T04:44:01.299Z,87.80
2022-08-18T04:46:29.299Z,84.27
2022-08-18T04:49:01.242Z,85.57
2022-08-18T04:52:36.296Z,92.27
2022-08-18T04:54:16.473Z,90.77
2022-08-18T04:56:43.418Z,87.70
2022-08-18T04:59:12.535Z,86.03
2022-08-18T05:01:45.715Z,81.90
2022-08-18T05:04:14.342Z,82.37
2022-08-18T05:06:43.248Z,84.93
2022-08-18T05:09:11.410Z,76.83
2022-08-18T05:11:39.078Z,76.67
2022-08-18T05:14:08.483Z,68.47
2022-08-18T05:16:48.221Z,76.00
2022-08-18T05:19:21.976Z,76.07
2022-08-18T05:21:51.568Z,72.50
2022-08-18T05:24:20.296Z,77.50
2022-08-18T05:26:51.203Z,71.17
2022-08-18T05:29:19.869Z,71.47
2022-08-18T05:31:48.228Z,65.67
2022-08-18T05:34:16.192Z,62.37
2022-08-18T05:36:49.059Z,65.83
2022-08-18T05:39:18.941Z,64.80
2022-08-18T05:41:48.959Z,63.40
2022-08-18T05:44:21.931Z,61.77
2022-08-18T05:46:55.415Z,61.80
2022-08-18T05:49:24.293Z,58.90
2022-08-18T05:52:05.028Z,60.80
2022-08-18T05:55:00.103Z,59.60
2022-08-18T05:57:30.681Z,60.87
2022-08-18T05:59:58.090Z,59.20
2022-08-18T06:02:42.155Z,60.87
2022-08-18T06:05:31.929Z,58.07
2022-08-18T06:08:13.741Z,56.13
2022-08-18T06:10:46.282Z,56.23
2022-08-18T06:13:13.539Z,55.67
2022-08-18T06:15:58.628Z,55.57
2022-08-18T06:18:50.184Z,53.67
2022-08-18T06:21:39.374Z,50.97
2022-08-18T06:24:32.107Z,54.80
2022-08-18T06:27:09.045Z,52.67
2022-08-18T06:29:47.850Z,50.07
2022-08-18T06:32:34.205Z,51.97
2022-08-18T06:35:18.198Z,51.13
2022-08-18T06:38:22.599Z,48.57
2022-08-18T06:40:49.998Z,51.93
2022-08-18T06:43:17.398Z,50.03
2022-08-18T06:45:51.230Z,52.10
2022-08-18T06:48:27.160Z,49.80
2022-08-18T06:50:58.600Z,48.20
2022-08-18T06:53:56.484Z,48.60
2022-08-18T06:56:43.368Z,47.73
2022-08-18T06:59:29.111Z,47.83
2022-08-18T07:02:16.938Z,51.37
2022-08-18T07:04:58.143Z,51.10
2022-08-18T07:07:40.215Z,51.07
2022-08-18T07:10:17.583Z,50.40
2022-08-18T07:12:44.229Z,47.40
2022-08-18T07:15:13.306Z,48.57
2022-08-18T07:17:53.092Z,45.90
2022-08-18T07:20:23.622Z,47.40
2022-08-18T07:23:07.919Z,44.30
2022-08-18T07:25:42.675Z,47.90
2022-08-18T07:28:33.237Z,45.73
2022-08-18T07:31:35.046Z,46.10
2022-08-18T07:34:08.347Z,46.27
2022-08-18T07:36:47.563Z,46.40
2022-08-18T07:39:21.433Z,43.83
2022-08-18T07:42:11.127Z,46.63
2022-08-18T07:45:04.232Z,45.20
2022-08-18T07:47:54.882Z,45.67
2022-08-18T07:50:55.192Z,44.53
2022-08-18T07:53:37.358Z,46.50
2022-08-18T07:56:22.619Z,46.20
2022-08-18T07:58:58.467Z,44.70
2022-08-18T08:01:34.358Z,46.17
2022-08-18T08:04:26.184Z,48.70
2022-08-18T08:07:26.220Z,48.37
2022-08-18T08:10:04.661Z,48.97
2022-08-18T08:13:08.452Z,50.67
2022-08-18T08:15:42.351Z,51.13
2022-08-18T08:18:28.774Z,50.33
2022-08-18T08:21:00.368Z,49.57
2022-08-18T08:23:27.396Z,47.93
2022-08-18T08:26:15.054Z,49.20
2022-08-18T08:28:57.049Z,47.50
2022-08-18T08:32:00.823Z,48.63
2022-08-18T08:34:54.402Z,49.90
2022-08-18T08:37:46.830Z,49.40
2022-08-18T08:40:21.775Z,49.93
2022-08-18T08:42:57.647Z,48.67
2022-08-18T08:45:32.184Z,50.90
2022-08-18T08:48:09.480Z,50.40
2022-08-18T08:51:03.453Z,49.17
2022-08-18T08:53:35.160Z,51.00
2022-08-18T08:56:07.985Z,52.57
2022-08-18T08:58:40.290Z,52.13
2022-08-18T09:01:27.553Z,51.27
2022-08-18T09:04:04.433Z,50.37
2022-08-18T09:07:08.335Z,52.37
2022-08-18T09:10:01.942Z,48.63
2022-08-18T09:12:46.360Z,49.03
2022-08-18T09:15:51.800Z,48.97
2022-08-18T09:18:30.804Z,50.00
2022-08-18T09:21:15.913Z,49.63
2022-08-18T09:23:46.898Z,49.90
2022-08-18T09:26:45.074Z,47.70
2022-08-18T09:29:45.783Z,48.10
2022-08-18T09:32:18.529Z,47.33
2022-08-18T09:34:56.404Z,46.70
2022-08-18T09:37:34.074Z,38.70
2022-08-18T09:41:01.119Z,43.27
2022-08-18T09:43:36.761Z,45.03
2022-08-18T09:46:05.930Z,44.90
2022-08-18T09:48:34.286Z,46.10
2022-08-18T09:51:17.698Z,43.70
2022-08-18T09:53:52.479Z,41.90
2022-08-18T09:56:54.358Z,44.63
2022-08-18T09:59:34.769Z,41.20
2022-08-18T10:02:20.162Z,41.47
2022-08-18T10:05:19.815Z,40.73
2022-08-18T10:07:53.181Z,43.90
2022-08-18T10:14:05.248Z,40.73
2022-08-18T10:20:26.712Z,40.80
2022-08-18T10:22:56.338Z,39.83
2022-08-18T10:25:42.995Z,40.83
2022-08-18T10:28:31.273Z,40.73
2022-08-18T10:31:06.406Z,41.10
2022-08-18T10:36:59.911Z,44.37
2022-08-18T10:39:39.771Z,37.97
2022-08-18T10:42:17.833Z,37.77
2022-08-18T10:44:47.594Z,40.90
2022-08-18T10:47:33.207Z,38.33
2022-08-18T10:50:05.107Z,37.87
2022-08-18T10:53:33.165Z,37.23
2022-08-18T10:56:01.206Z,36.50
2022-08-18T10:58:40.521Z,34.60
2022-08-18T11:01:14.409Z,36.87
2022-08-18T11:03:51.164Z,35.37
2022-08-18T11:06:23.427Z,35.90
2022-08-18T11:08:55.213Z,34.30
2022-08-18T11:11:34.726Z,37.07
2022-08-18T11:14:26.468Z,33.43
2022-08-18T11:17:15.984Z,32.70
2022-08-18T11:19:45.051Z,33.03
2022-08-18T11:22:31.556Z,32.77
2022-08-18T11:25:00.749Z,31.27
2022-08-18T11:27:35.579Z,31.77
2022-08-18T11:30:05.552Z,32.93
2022-08-18T11:32:39.386Z,34.10
2022-08-18T11:35:23.947Z,30.33
2022-08-18T11:38:12.413Z,31.20
2022-08-18T11:43:41.822Z,29.63
2022-08-18T11:46:29.615Z,30.37
2022-08-18T11:48:59.986Z,30.57
2022-08-18T11:51:33.248Z,32.27
2022-08-18T11:54:24.737Z,30.80
2022-08-18T11:56:51.898Z,30.27
2022-08-18T11:59:52.480Z,29.03
2022-08-18T12:02:20.843Z,29.97
2022-08-18T12:04:53.017Z,29.30
2022-08-18T12:07:57.198Z,30.60
2022-08-18T12:10:28.063Z,29.53
2022-08-18T12:12:57.493Z,29.93
2022-08-18T12:15:43.829Z,27.17
2022-08-18T12:18:26.484Z,30.63
2022-08-18T12:20:58.222Z,27.30
2022-08-18T12:23:25.206Z,26.00
2022-08-18T12:25:52.107Z,29.83
2022-08-18T12:28:22.407Z,26.40
2022-08-18T12:30:56.636Z,28.20
2022-08-18T12:33:25.143Z,27.73
2022-08-18T12:35:52.582Z,27.30
2022-08-18T12:38:19.323Z,26.00
2022-08-18T12:40:46.067Z,26.13
2022-08-18T12:43:13.006Z,28.77
2022-08-18T12:45:40.362Z,27.07
2022-08-18T12:48:08.788Z,26.90
2022-08-18T12:50:49.603Z,26.60
2022-08-18T12:56:21.523Z,27.13
2022-08-18T12:58:49.715Z,25.70
2022-08-18T13:01:20.205Z,26.63
2022-08-18T13:04:03.660Z,28.20
2022-08-18T13:06:41.273Z,28.10
2022-08-18T13:09:35.306Z,27.00
2022-08-18T13:12:14.787Z,26.90
2022-08-18T13:14:43.487Z,23.27
2022-08-18T13:17:15.257Z,24.70
2022-08-18T13:19:57.270Z,24.50
2022-08-18T13:22:32.783Z,25.67
2022-08-18T13:25:06.926Z,24.17
2022-08-18T13:27:36.104Z,21.50
2022-08-18T13:30:29.590Z,23.37
2022-08-18T13:33:00.688Z,23.80
2022-08-18T13:35:38.008Z,22.80
2022-08-18T13:38:17.132Z,24.40
2022-08-18T13:40:48.506Z,24.70
2022-08-18T13:43:17.889Z,23.37
2022-08-18T13:45:46.981Z,21.97
2022-08-18T13:48:20.050Z,24.10
2022-08-18T13:50:52.743Z,22.00
2022-08-18T13:53:21.152Z,20.70
2022-08-18T13:55:48.506Z,24.10
2022-08-18T13:58:20.529Z,24.17
2022-08-18T14:00:52.186Z,23.00
2022-08-18T14:03:42.716Z,24.03
2022-08-18T14:06:13.037Z,24.33
2022-08-18T14:08:40.396Z,24.40
2022-08-18T14:11:07.446Z,23.33
2022-08-18T14:13:38.089Z,24.23
2022-08-18T14:16:18.731Z,24.50
2022-08-18T14:19:17.624Z,22.63
2022-08-18T14:22:06.983Z,22.00
2022-08-18T14:24:57.914Z,22.70
2022-08-18T14:27:35.026Z,24.60
2022-08-18T14:30:12.146Z,22.90
2022-08-18T14:32:48.722Z,22.07
2022-08-18T14:36:03.731Z,20.57
2022-08-18T14:38:05.035Z,22.90
2022-08-18T14:40:33.297Z,22.50
2022-08-18T14:43:01.855Z,19.40
2022-08-18T14:45:34.418Z,18.60
2022-08-18T14:48:07.289Z,18.70
2022-08-18T14:50:38.814Z,19.93
2022-08-18T14:53:06.417Z,19.27
2022-08-18T14:55:34.214Z,17.77
2022-08-18T14:58:01.399Z,18.10
2022-08-18T15:00:30.141Z,22.43
2022-08-18T15:02:59.488Z,20.10
2022-08-18T15:05:27.133Z,19.90
2022-08-18T15:07:54.028Z,20.67
2022-08-18T15:10:23.733Z,19.80
2022-08-18T15:12:55.337Z,20.60
2022-08-18T15:15:22.558Z,19.40
2022-08-18T15:17:52.642Z,20.00
2022-08-18T15:20:29.706Z,20.50
2022-08-18T15:23:24.683Z,21.30
2022-08-18T15:25:51.977Z,20.60
2022-08-18T15:28:21.499Z,21.40
2022-08-18T15:31:16.609Z,22.07
2022-08-18T15:33:38.858Z,25.70
2022-08-18T15:36:05.703Z,22.37
2022-08-18T15:38:36.811Z,22.90
2022-08-18T15:41:06.354Z,23.00
2022-08-18T15:43:37.021Z,21.43
2022-08-18T15:46:14.027Z,25.03
2022-08-18T15:48:43.675Z,22.83
2022-08-18T15:51:12.037Z,22.07
2022-08-18T15:53:45.009Z,24.80
2022-08-18T15:56:31.912Z,23.83
2022-08-18T15:59:04.153Z,26.07
2022-08-18T16:01:32.204Z,25.20
2022-08-18T16:04:00.419Z,28.10
2022-08-18T16:06:32.282Z,27.20
2022-08-18T16:09:01.014Z,25.93
2022-08-18T16:11:28.966Z,27.10
2022-08-18T16:13:58.651Z,25.13
2022-08-18T16:16:29.736Z,24.00
2022-08-18T16:19:06.078Z,24.03
2022-08-18T16:21:33.554Z,25.20
2022-08-18T16:24:00.180Z,24.90
2022-08-18T16:26:26.845Z,24.33
2022-08-18T16:28:53.589Z,24.43
2022-08-18T16:31:26.021Z,24.77
2022-08-18T16:33:53.765Z,25.33
2022-08-18T16:36:22.121Z,25.30
2022-08-18T16:38:48.762Z,25.67
2022-08-18T16:41:20.770Z,23.53
2022-08-18T16:43:47.828Z,23.53
2022-08-18T16:46:21.528Z,23.50
2022-08-18T16:48:49.445Z,24.40
2022-08-18T16:51:19.189Z,21.80
2022-08-18T16:53:47.319Z,21.57
2022-08-18T16:56:16.904Z,21.97
2022-08-18T16:59:02.061Z,20.27
2022-08-18T17:01:49.033Z,19.30
2022-08-18T17:04:24.034Z,20.83
2022-08-18T17:06:51.044Z,19.57
2022-08-18T17:09:19.433Z,19.37
2022-08-18T17:11:51.567Z,18.40
2022-08-18T17:14:20.642Z,18.30
2022-08-18T17:16:49.364Z,17.40
2022-08-18T17:19:16.044Z,17.67
2022-08-18T17:21:43.009Z,18.03
2022-08-18T17:24:10.580Z,18.23
2022-08-18T17:26:59.511Z,17.30
2022-08-18T17:29:46.000Z,18.80
2022-08-18T17:32:21.507Z,16.40
2022-08-18T17:34:53.954Z,17.47
2022-08-18T17:37:23.953Z,17.03
2022-08-18T17:40:15.383Z,16.90
2022-08-18T17:42:42.052Z,15.23
2022-08-18T17:45:13.654Z,15.07
2022-08-18T17:47:54.901Z,15.00
2022-08-18T17:50:45.826Z,15.70
2022-08-18T17:53:13.548Z,15.17
2022-08-18T17:55:47.145Z,16.47
2022-08-18T17:58:31.062Z,17.00
2022-08-18T18:00:57.762Z,16.40
2022-08-18T18:03:24.434Z,15.10
2022-08-18T18:05:57.839Z,16.17
2022-08-18T18:08:53.970Z,16.73
2022-08-18T18:11:31.214Z,16.90
2022-08-18T18:14:18.849Z,16.13
2022-08-18T18:17:00.270Z,14.60
2022-08-18T18:19:30.737Z,15.37
2022-08-18T18:22:24.925Z,14.83
2022-08-18T18:25:07.502Z,15.60
2022-08-18T18:27:39.817Z,15.00
2022-08-18T18:30:27.686Z,15.37
2022-08-18T18:33:02.966Z,16.07
2022-08-18T18:35:54.925Z,14.90
2022-08-18T18:38:35.073Z,14.77
2022-08-18T18:41:06.706Z,16.03
2022-08-18T18:43:33.312Z,15.50
2022-08-18T18:46:22.815Z,16.87
2022-08-18T18:49:11.001Z,16.63
2022-08-18T18:51:56.557Z,16.40
2022-08-18T18:54:42.550Z,17.77
2022-08-18T18:57:37.869Z,18.90
2022-08-18T19:00:23.079Z,18.17
2022-08-18T19:03:31.442Z,18.70
2022-08-18T19:06:19.992Z,16.03
2022-08-18T19:08:59.470Z,17.37
2022-08-18T19:11:46.010Z,17.50
2022-08-18T19:14:26.364Z,17.60
2022-08-18T19:17:02.347Z,16.43
2022-08-18T19:19:39.346Z,16.00
2022-08-18T19:22:20.814Z,15.00
2022-08-18T19:25:04.058Z,15.27
2022-08-18T19:27:39.976Z,16.50
2022-08-18T19:30:12.446Z,17.30
2022-08-18T19:32:46.489Z,17.93
2022-08-18T19:35:19.850Z,15.60
2022-08-18T19:38:04.516Z,16.67
2022-08-18T19:40:49.262Z,16.23
2022-08-18T19:43:42.758Z,16.40
2022-08-18T19:46:51.885Z,18.30
2022-08-18T19:49:21.829Z,15.80
2022-08-18T19:51:52.301Z,17.30
2022-08-18T19:54:18.901Z,16.60
2022-08-18T19:57:03.462Z,17.53
2022-08-18T20:00:25.259Z,18.60
2022-08-18T20:03:21.187Z,18.50
2022-08-18T20:06:13.268Z,19.07
2022-08-18T20:09:03.117Z,17.93
2022-08-18T20:11:52.402Z,17.20
2022-08-18T20:14:20.323Z,17.30
2022-08-18T20:17:12.736Z,16.90
2022-08-18T20:19:47.661Z,17.20
2022-08-18T20:22:24.568Z,17.67
2022-08-18T20:25:32.731Z,17.53
2022-08-18T20:27:59.419Z,18.03
2022-08-18T20:30:33.871Z,18.33
2022-08-18T20:33:07.419Z,17.87
2022-08-18T20:35:59.258Z,17.43
2022-08-18T20:38:47.011Z,18.40
2022-08-18T20:41:29.974Z,18.37
2022-08-18T20:44:36.491Z,18.93
2022-08-18T20:47:36.513Z,18.20
2022-08-18T20:50:34.110Z,18.57
2022-08-18T20:53:39.702Z,17.67
2022-08-18T20:56:32.584Z,18.50
2022-08-18T20:59:21.137Z,18.13
2022-08-18T21:02:08.107Z,18.73
2022-08-18T21:04:45.449Z,18.67
2022-08-18T21:07:36.207Z,18.90
2022-08-18T21:10:24.679Z,19.00
2022-08-18T21:12:57.769Z,17.60
2022-08-18T21:15:36.905Z,17.80
2022-08-18T21:18:18.771Z,18.63
2022-08-18T21:20:51.134Z,18.27
2022-08-18T21:23:25.836Z,18.63
2022-08-18T21:25:57.819Z,19.00
2022-08-18T21:28:28.166Z,18.50
2022-08-18T21:31:29.089Z,19.67
2022-08-18T21:33:51.001Z,17.97
2022-08-18T21:36:20.101Z,18.70
2022-08-18T21:39:03.414Z,19.47
2022-08-18T21:41:39.104Z,18.80
2022-08-18T21:44:21.203Z,18.57
2022-08-18T21:46:48.811Z,19.80
2022-08-18T21:49:28.194Z,20.33
2022-08-18T21:51:54.912Z,19.87
2022-08-18T21:54:25.791Z,18.10
2022-08-18T21:57:22.365Z,20.07
2022-08-18T22:00:18.339Z,19.90
2022-08-18T22:02:47.034Z,20.40
2022-08-18T22:05:26.785Z,20.40
2022-08-18T22:07:53.597Z,21.20
2022-08-18T22:10:51.056Z,19.50
2022-08-18T22:13:40.387Z,21.20
2022-08-18T22:16:24.531Z,19.50
2022-08-18T22:18:51.658Z,20.03
2022-08-18T22:21:41.033Z,20.50
2022-08-18T22:24:20.216Z,20.83
2022-08-18T22:27:26.280Z,23.80
2022-08-18T22:30:03.625Z,23.67
2022-08-18T22:32:32.917Z,23.67
2022-08-18T22:34:59.838Z,23.40
2022-08-18T22:37:32.430Z,21.40
2022-08-18T22:40:10.100Z,22.33
2022-08-18T22:42:37.667Z,20.20
2022-08-18T22:45:13.262Z,19.83
2022-08-18T22:47:43.135Z,20.50
2022-08-18T22:50:12.247Z,18.50
2022-08-18T22:52:48.190Z,18.27
2022-08-18T22:55:20.250Z,20.20
2022-08-18T22:57:50.963Z,18.20
2022-08-18T23:00:22.988Z,17.87
2022-08-18T23:02:50.795Z,17.70
2022-08-18T23:05:18.082Z,16.43
2022-08-18T23:07:45.962Z,16.13
2022-08-18T23:10:14.066Z,15.23
2022-08-18T23:12:42.985Z,15.60
2022-08-18T23:15:13.156Z,14.30
2022-08-18T23:17:43.435Z,14.13
2022-08-18T23:20:17.554Z,14.10
2022-08-18T23:22:45.444Z,13.27
2022-08-18T23:25:13.192Z,13.60
2022-08-18T23:27:40.873Z,12.60
2022-08-18T23:30:08.311Z,11.70
2022-08-18T23:32:34.974Z,11.97
2022-08-18T23:35:02.275Z,12.20
2022-08-18T23:37:28.940Z,12.40
2022-08-18T23:39:55.872Z,12.60
2022-08-18T23:42:23.130Z,12.27
2022-08-18T23:44:50.142Z,12.10
2022-08-18T23:47:19.404Z,13.80
2022-08-18T23:49:46.481Z,12.67
2022-08-18T23:52:13.130Z,14.30
2022-08-18T23:54:39.789Z,14.00
2022-08-18T23:57:06.466Z,12.20
2022-08-18T23:59:33.219Z,14.03
